River Forest, Illinois
Current Conditions -  °F | °C
As of 2:53 PM on Tuesday 25 Nov 2014 (Local Time) from KMDW Reporting Station
Broken Clouds Broken Clouds  
Wind Chill: 15°   Ceiling: 2200
Heat Index: 26°   Visibility: 10mi
Dew Point: 18°   Wind: 13mph
Humidity: 71%   Direction: 260°W
Pressure: 30.15"   Gusts: NA
Location:  41.88°N, 87.82°W
Report Text: KMDW 252053Z 26011KT 10SM BKN022 M03/M08 A3015 RMK AO2 SLP223 T10331078 53017
Loading
Personal Weather Stations






























Interactive Weather Map New forecast layout! Learn more

10-Day Weather Forecast

Advertisements
Track Severe Weather on mobile